Time;durP1;ratioP1;P1;durP2;ratioP2;P2;SDS_P1;SDS_P2;PMS_P1;PMS_P2;Temp;Humidity;BMP_temperature;BMP_pressure;BME280_temperature;BME280_humidity;BME280_pressure;Samples;Min_cycle;Max_cycle;Signal;HPM_P1;HPM_P2
2022/05/07 00:00:05;;;;;;;6.50;3.92;;;;;;;;;;2612594;22;19995;-79
2022/05/07 00:01:05;;;;;;;5.72;3.97;;;;;;;;;;2612225;22;19996;-79
2022/05/07 00:02:06;;;;;;;;;;;;;;;;;;2613099;22;19995;-79
2022/05/07 00:03:07;;;;;;;5.22;3.53;;;;;;;;;;2607209;22;19914;-79
2022/05/07 00:04:07;;;;;;;;;;;;;;;;;;2595281;22;19996;-79
2022/05/07 00:05:08;;;;;;;4.73;3.67;;;;;;;;;;2599103;22;20210;-79
2022/05/07 00:06:08;;;;;;;5.03;3.20;;;;;;;;;;2612446;22;19995;-79
2022/05/07 00:07:09;;;;;;;4.80;3.30;;;;;;;;;;2594667;22;19999;-79
2022/05/07 00:08:09;;;;;;;8.70;3.78;;;;;;;;;;2599206;22;20003;-79
2022/05/07 00:09:10;;;;;;;;;;;;;;;;;;2612919;22;20019;-79
2022/05/07 00:10:10;;;;;;;4.85;3.35;;;;;;;;;;2612548;22;20418;-79
2022/05/07 00:11:15;;;;;;;5.53;3.70;;;;;;;;;;2594573;22;20000;-80
2022/05/07 00:12:17;;;;;;;7.00;4.10;;;;;;;;;;2599723;22;20311;-79
2022/05/07 00:13:18;;;;;;;4.38;3.25;;;;;;;;;;2612375;22;20021;-79
2022/05/07 00:14:18;;;;;;;;;;;;;;;;;;2612617;22;20458;-79
2022/05/07 00:15:26;;;;;;;4.23;3.13;;;;;;;;;;2594806;22;19903;-80
2022/05/07 00:19:04;;;;;;;6.68;3.47;;;;;;;;;;2612365;22;20308;-79
2022/05/07 00:20:05;;;;;;;;;;;;;;;;;;2612767;22;20397;-78
2022/05/07 00:21:06;;;;;;;8.93;4.10;;;;;;;;;;2607351;22;19902;-80
2022/05/07 00:22:06;;;;;;;;;;;;;;;;;;2595196;22;19995;-79
2022/05/07 00:23:07;;;;;;;6.07;3.50;;;;;;;;;;2582161;23;19914;-80
2022/05/07 00:24:09;;;;;;;;;;;;;;;;;;2595693;22;19999;-80
2022/05/07 00:25:10;;;;;;;5.68;3.78;;;;;;;;;;2612214;22;19902;-79
2022/05/07 00:26:10;;;;;;;;;;;;;;;;;;2595451;22;20327;-79
2022/05/07 00:27:13;;;;;;;5.13;3.20;;;;;;;;;;2594941;22;19985;-80
2022/05/07 00:28:16;;;;;;;6.20;4.00;;;;;;;;;;2595454;22;20004;-79
2022/05/07 00:29:16;;;;;;;8.35;4.20;;;;;;;;;;2612257;22;19991;-80
2022/05/07 00:30:19;;;;;;;;;;;;;;;;;;2608874;22;20006;-77
2022/05/07 00:31:20;;;;;;;6.78;3.97;;;;;;;;;;2594545;22;19902;-79
2022/05/07 00:32:20;;;;;;;;;;;;;;;;;;2599061;22;19995;-79
2022/05/07 00:33:20;;;;;;;5.87;3.47;;;;;;;;;;2612218;22;20044;-79
2022/05/07 00:34:21;;;;;;;5.82;3.78;;;;;;;;;;2612299;22;19995;-79
2022/05/07 00:35:25;;;;;;;8.82;3.33;;;;;;;;;;2594690;22;19995;-79
2022/05/07 00:36:25;;;;;;;4.82;3.67;;;;;;;;;;2582247;22;20427;-80
2022/05/07 00:37:25;;;;;;;;;;;;;;;;;;2599534;22;20075;-80
2022/05/07 00:38:26;;;;;;;6.03;3.47;;;;;;;;;;2612443;22;19980;-80
2022/05/07 00:39:27;;;;;;;5.88;3.88;;;;;;;;;;2594517;22;20014;-79
2022/05/07 00:40:27;;;;;;;;;;;;;;;;;;2599398;22;20015;-79
2022/05/07 00:41:28;;;;;;;8.43;4.20;;;;;;;;;;2611862;22;19903;-79
2022/05/07 00:42:28;;;;;;;;;;;;;;;;;;2595054;22;19999;-79
2022/05/07 00:43:35;;;;;;;7.17;4.00;;;;;;;;;;2598881;22;19903;-79
2022/05/07 00:44:38;;;;;;;6.45;3.85;;;;;;;;;;2612528;22;20068;-79
2022/05/07 00:45:39;;;;;;;6.13;3.75;;;;;;;;;;2594517;22;19996;-79
2022/05/07 00:46:39;;;;;;;;;;;;;;;;;;2599204;22;20071;-78
2022/05/07 00:47:47;;;;;;;5.73;3.83;;;;;;;;;;2612528;22;19945;-79
2022/05/07 00:48:50;;;;;;;6.93;4.03;;;;;;;;;;2594499;22;20066;-79
2022/05/07 00:51:33;;;;;;;7.38;4.20;;;;;;;;;;2599538;22;19988;-79
2022/05/07 00:51:38;;;;;;;5.55;4.75;;;;;;;;;;2607577;22;20375;-79
2022/05/07 00:52:38;;;;;;;6.07;4.60;;;;;;;;;;2612257;22;20041;-79
2022/05/07 00:53:39;;;;;;;;;;;;;;;;;;2612707;22;19999;-79
2022/05/07 00:54:41;;;;;;;6.72;4.57;;;;;;;;;;2608280;22;20248;-79
2022/05/07 00:55:42;;;;;;;5.22;4.22;;;;;;;;;;2612276;22;20324;-80
2022/05/07 00:56:43;;;;;;;5.63;3.30;;;;;;;;;;2612266;22;20312;-79
2022/05/07 00:57:43;;;;;;;;;;;;;;;;;;2612824;22;19991;-79
2022/05/07 00:58:44;;;;;;;6.87;4.43;;;;;;;;;;2612372;22;20226;-79
2022/05/07 00:59:47;;;;;;;;;;;;;;;;;;2612550;22;19993;-79
2022/05/07 01:00:47;;;;;;;9.95;4.38;;;;;;;;;;2594624;22;19907;-79
2022/05/07 01:01:48;;;;;;;;;;;;;;;;;;2599401;22;20092;-80
2022/05/07 01:02:48;;;;;;;5.67;3.50;;;;;;;;;;2620198;22;19925;-79
2022/05/07 01:03:49;;;;;;;6.63;4.03;;;;;;;;;;2620693;22;20033;-79
2022/05/07 01:04:50;;;;;;;;;;;;;;;;;;2612648;22;19991;-78
2022/05/07 01:05:50;;;;;;;5.68;4.45;;;;;;;;;;2594508;22;19903;-79
2022/05/07 01:06:51;;;;;;;;;;;;;;;;;;2582413;23;20083;-79
2022/05/07 01:07:51;;;;;;;7.47;4.40;;;;;;;;;;2598739;22;19941;-79
2022/05/07 01:08:52;;;;;;;;;;;;;;;;;;2612830;22;20006;-79
2022/05/07 01:09:53;;;;;;;8.00;4.37;;;;;;;;;;2612107;22;19911;-79
2022/05/07 01:10:55;;;;;;;;;;;;;;;;;;2612699;22;19991;-79
2022/05/07 01:11:58;;;;;;;7.25;4.38;;;;;;;;;;2612059;22;20056;-79
2022/05/07 01:12:59;;;;;;;8.23;3.95;;;;;;;;;;2612099;22;19999;-79
2022/05/07 01:14:01;;;;;;;7.90;4.55;;;;;;;;;;2607107;22;20006;-79
2022/05/07 01:15:02;;;;;;;10.13;4.30;;;;;;;;;;2611657;22;19987;-79
2022/05/07 01:16:02;;;;;;;;;;;;;;;;;;2594761;22;20442;-79
2022/05/07 01:17:06;;;;;;;6.30;4.30;;;;;;;;;;2598774;22;19906;-79
2022/05/07 01:18:07;;;;;;;5.35;4.35;;;;;;;;;;2594172;22;20023;-80
2022/05/07 01:19:08;;;;;;;5.95;3.83;;;;;;;;;;2598993;22;20080;-79
2022/05/07 01:20:10;;;;;;;;;;;;;;;;;;2595061;22;20422;-79
2022/05/07 01:21:12;;;;;;;7.22;4.50;;;;;;;;;;2607337;22;20245;-78
2022/05/07 01:22:13;;;;;;;8.55;4.28;;;;;;;;;;2606880;22;20003;-79
2022/05/07 01:23:16;;;;;;;;;;;;;;;;;;2599119;22;20062;-79
2022/05/07 01:24:21;;;;;;;7.97;4.22;;;;;;;;;;2594522;22;20256;-79
2022/05/07 01:25:22;;;;;;;6.95;4.30;;;;;;;;;;2586751;22;20007;-79
2022/05/07 01:26:33;;;;;;;;;;;;;;;;;;;;;
2022/05/07 01:27:36;;;;;;;11.77;4.53;;;;;;;;;;2600727;22;19911;-79
2022/05/07 01:28:41;;;;;;;5.63;4.50;;;;;;;;;;2607230;22;19999;-79
2022/05/07 01:29:42;;;;;;;4.68;3.60;;;;;;;;;;2610383;22;20078;-79
2022/05/07 01:30:42;;;;;;;;;;;;;;;;;;2599354;22;20081;-79
2022/05/07 01:31:43;;;;;;;10.83;4.83;;;;;;;;;;2594235;22;19903;-79
2022/05/07 01:32:51;;;;;;;4.25;3.85;;;;;;;;;;2581500;22;20435;-79
2022/05/07 01:33:54;;;;;;;6.72;4.00;;;;;;;;;;2600357;22;20026;-79
2022/05/07 01:34:55;;;;;;;6.70;4.18;;;;;;;;;;2594453;22;20024;-79
2022/05/07 01:35:56;;;;;;;;;;;;;;;;;;2599274;22;20315;-78
2022/05/07 01:36:56;;;;;;;5.57;3.97;;;;;;;;;;2612212;22;19946;-79
2022/05/07 01:38:09;;;;;;;;;;;;;;;;;;;;;
2022/05/07 01:39:10;;;;;;;5.65;4.43;;;;;;;;;;2611866;22;20002;-79
2022/05/07 01:40:13;;;;;;;;;;;;;;;;;;2612785;22;20093;-79
2022/05/07 01:41:15;;;;;;;7.70;4.03;;;;;;;;;;2612070;22;19906;-80
2022/05/07 01:42:26;;;;;;;7.60;3.90;;;;;;;;;;2611862;22;19999;-80
2022/05/07 01:43:32;;;;;;;11.27;5.10;;;;;;;;;;2612310;22;20287;-79
2022/05/07 01:44:33;;;;;;;9.07;4.30;;;;;;;;;;2612033;22;19999;-79
2022/05/07 01:45:33;;;;;;;;;;;;;;;;;;2613327;22;20375;-79
2022/05/07 01:48:11;;;;;;;8.82;4.07;;;;;;;;;;2608694;22;19999;-79
2022/05/07 01:49:12;;;;;;;6.05;4.22;;;;;;;;;;2595206;22;20003;-79
2022/05/07 01:50:12;;;;;;;;;;;;;;;;;;2600097;22;20007;-79
2022/05/07 01:51:12;;;;;;;12.67;5.53;;;;;;;;;;2612978;22;19914;-79
2022/05/07 01:52:13;;;;;;;;;;;;;;;;;;2613524;22;20069;-79
2022/05/07 01:53:16;;;;;;;10.82;4.63;;;;;;;;;;2612911;22;20225;-79
2022/05/07 01:54:17;;;;;;;8.15;5.20;;;;;;;;;;2612878;22;20019;-79
2022/05/07 01:55:17;;;;;;;;;;;;;;;;;;2613520;22;20067;-80
2022/05/07 01:56:18;;;;;;;6.82;4.45;;;;;;;;;;2613113;22;19903;-79
2022/05/07 01:57:18;;;;;;;6.38;4.28;;;;;;;;;;2609088;22;19992;-79
2022/05/07 01:58:26;;;;;;;;;;;;;;;;;;2613628;22;19991;-79
2022/05/07 01:59:33;;;;;;;9.13;5.93;;;;;;;;;;2613348;22;19902;-79
2022/05/07 02:00:34;;;;;;;7.28;4.53;;;;;;;;;;2612765;22;20020;-79
2022/05/07 02:01:35;;;;;;;;;;;;;;;;;;2608582;22;20405;-79
2022/05/07 02:02:38;;;;;;;9.77;4.57;;;;;;;;;;2612375;22;20040;-79
2022/05/07 02:03:59;;;;;;;5.18;4.43;;;;;;;;;;2612886;22;20091;-79
2022/05/07 02:04:59;;;;;;;5.90;4.45;;;;;;;;;;2612879;22;19991;-78
2022/05/07 02:06:20;;;;;;;9.35;3.80;;;;;;;;;;2594761;22;20405;-78
2022/05/07 02:07:25;;;;;;;6.07;4.68;;;;;;;;;;2599301;22;20365;-79
2022/05/07 02:08:33;;;;;;;11.95;5.07;;;;;;;;;;2595299;22;20318;-78
2022/05/07 02:09:36;;;;;;;8.38;4.53;;;;;;;;;;2601125;22;19996;-78
2022/05/07 02:10:36;;;;;;;8.65;4.40;;;;;;;;;;2613084;22;20033;-79
2022/05/07 02:11:42;;;;;;;;;;;;;;;;;;2613717;22;20060;-79
2022/05/07 02:12:50;;;;;;;8.13;3.80;;;;;;;;;;2612762;22;20294;-79
2022/05/07 02:14:11;;;;;;;5.28;4.07;;;;;;;;;;2612972;22;19991;-80
2022/05/07 02:15:11;;;;;;;6.32;4.05;;;;;;;;;;2607962;22;20005;-80
2022/05/07 02:16:16;;;;;;;6.32;4.22;;;;;;;;;;2612909;22;20010;-80
2022/05/07 02:17:17;;;;;;;6.50;4.78;;;;;;;;;;2612736;22;20436;-80
2022/05/07 02:18:20;;;;;;;;;;;;;;;;;;2595548;22;19992;-78
2022/05/07 02:19:28;;;;;;;6.97;3.78;;;;;;;;;;2608355;22;19910;-80
2022/05/07 02:20:28;;;;;;;6.28;4.30;;;;;;;;;;2610534;22;20003;-80
2022/05/07 02:21:31;;;;;;;;;;;;;;;;;;2595540;22;20411;-78
2022/05/07 02:22:32;;;;;;;6.88;4.38;;;;;;;;;;2599971;22;20073;-80
2022/05/07 02:23:32;;;;;;;;;;;;;;;;;;2595629;22;20461;-80
2022/05/07 02:24:33;;;;;;;9.07;4.10;;;;;;;;;;2582686;23;19907;-80
2022/05/07 02:25:33;;;;;;;9.57;5.45;;;;;;;;;;2582588;22;20004;-80
2022/05/07 02:26:43;;;;;;;7.53;4.43;;;;;;;;;;2599532;22;20414;-80
2022/05/07 02:27:47;;;;;;;7.10;4.68;;;;;;;;;;2613039;22;19995;-79
2022/05/07 02:28:48;;;;;;;7.32;4.45;;;;;;;;;;2612963;22;19991;-80
2022/05/07 02:29:48;;;;;;;;;;;;;;;;;;2613634;22;20282;-79
2022/05/07 02:31:01;;;;;;;;;;;;;;;;;;;;;
2022/05/07 02:32:13;;;;;;;7.07;4.18;;;;;;;;;;2622793;22;19987;-79
2022/05/07 02:33:16;;;;;;;9.57;5.03;;;;;;;;;;2612824;22;19999;-80
2022/05/07 02:34:16;;;;;;;9.48;5.53;;;;;;;;;;2612574;22;19991;-80
2022/05/07 02:35:21;;;;;;;;;;;;;;;;;;2613183;22;20379;-79
2022/05/07 02:36:24;;;;;;;9.77;4.90;;;;;;;;;;2594926;22;19903;-79
2022/05/07 02:37:27;;;;;;;11.25;4.85;;;;;;;;;;2595022;22;19995;-79
2022/05/07 02:38:27;;;;;;;9.07;4.13;;;;;;;;;;2599883;22;20061;-79
2022/05/07 02:39:30;;;;;;;;;;;;;;;;;;2595404;22;20060;-79
2022/05/07 02:42:33;;;;;;;9.38;4.40;;;;;;;;;;2599843;22;19903;-79
2022/05/07 02:43:10;;;;;;;6.32;4.35;;;;;;;;;;2612654;22;19991;-80
2022/05/07 02:44:11;;;;;;;;;;;;;;;;;;2613388;22;19995;-80
2022/05/07 02:45:13;;;;;;;8.10;4.87;;;;;;;;;;2612635;22;19902;-80
2022/05/07 02:46:15;;;;;;;10.85;4.97;;;;;;;;;;2607857;22;20101;-80
2022/05/07 02:47:16;;;;;;;10.15;5.47;;;;;;;;;;2594877;22;20382;-80
2022/05/07 02:48:16;;;;;;;;;;;;;;;;;;2582983;23;20007;-79
2022/05/07 02:49:17;;;;;;;7.70;5.03;;;;;;;;;;2582474;23;19911;-79
2022/05/07 02:50:19;;;;;;;;;;;;;;;;;;2599993;22;20019;-79
2022/05/07 02:51:20;;;;;;;5.75;4.60;;;;;;;;;;2612548;22;19910;-80
2022/05/07 02:52:21;;;;;;;6.65;4.47;;;;;;;;;;2612449;22;20401;-79
2022/05/07 02:53:21;;;;;;;;;;;;;;;;;;2613232;22;20006;-80
2022/05/07 02:54:22;;;;;;;5.33;3.20;;;;;;;;;;2608792;22;19902;-79
2022/05/07 02:55:25;;;;;;;5.45;3.95;;;;;;;;;;2612775;22;19995;-79
2022/05/07 02:56:26;;;;;;;6.80;3.63;;;;;;;;;;2608037;22;20003;-80
2022/05/07 02:57:26;;;;;;;;;;;;;;;;;;2608512;22;20010;-80
2022/05/07 02:58:27;;;;;;;5.20;3.37;;;;;;;;;;2599193;22;19904;-78
2022/05/07 02:59:27;;;;;;;;;;;;;;;;;;2613505;22;19999;-78
2022/05/07 03:00:28;;;;;;;4.93;3.60;;;;;;;;;;2594615;22;19985;-78
2022/05/07 03:01:28;;;;;;;5.32;3.33;;;;;;;;;;2594652;22;20287;-79
2022/05/07 03:02:32;;;;;;;6.40;3.60;;;;;;;;;;2595105;22;20000;-80
2022/05/07 03:03:52;;;;;;;5.40;3.72;;;;;;;;;;2599751;22;20035;-79
2022/05/07 03:04:55;;;;;;;5.40;3.80;;;;;;;;;;2598891;22;20002;-80
2022/05/07 03:06:06;;;;;;;;;;;;;;;;;;;;;
2022/05/07 03:07:09;;;;;;;;;;;;;;;;;;2613239;22;20335;-79
2022/05/07 03:08:10;;;;;;;5.70;3.42;;;;;;;;;;2607626;22;19909;-80
2022/05/07 03:09:13;;;;;;;;;;;;;;;;;;2595237;22;19991;-79
2022/05/07 03:10:13;;;;;;;5.57;3.60;;;;;;;;;;2599704;22;20313;-79
2022/05/07 03:11:23;;;;;;;;;;;;;;;;;;2595249;22;19995;-79
2022/05/07 03:12:27;;;;;;;5.68;3.28;;;;;;;;;;2594963;22;19938;-79
2022/05/07 03:13:27;;;;;;;4.95;3.08;;;;;;;;;;2599846;22;20385;-79
2022/05/07 03:14:33;;;;;;;;;;;;;;;;;;2595431;22;20034;-79
2022/05/07 03:15:33;;;;;;;4.60;3.75;;;;;;;;;;2600361;22;19911;-79
2022/05/07 03:16:41;;;;;;;;;;;;;;;;;;2613180;22;20413;-77
2022/05/07 03:17:41;;;;;;;5.85;3.60;;;;;;;;;;2595239;22;19903;-80
2022/05/07 03:18:44;;;;;;;;;;;;;;;;;;2599994;22;20480;-79
2022/05/07 03:19:47;;;;;;;6.95;3.50;;;;;;;;;;2620938;22;20210;-79
2022/05/07 03:20:57;;;;;;;4.45;3.13;;;;;;;;;;2607322;22;19991;-79
2022/05/07 03:22:05;;;;;;;3.65;3.25;;;;;;;;;;2600894;22;19988;-79
2022/05/07 03:23:09;;;;;;;3.58;2.90;;;;;;;;;;2612782;22;20057;-79
2022/05/07 03:24:10;;;;;;;5.68;3.13;;;;;;;;;;2612757;22;19994;-78
2022/05/07 03:25:11;;;;;;;5.25;3.63;;;;;;;;;;2610581;22;20066;-79
2022/05/07 03:26:21;;;;;;;3.53;3.10;;;;;;;;;;2607840;22;20005;-79
2022/05/07 03:27:29;;;;;;;6.30;3.67;;;;;;;;;;2595214;22;20010;-78
2022/05/07 03:28:29;;;;;;;4.10;3.20;;;;;;;;;;2601039;22;20069;-78
2022/05/07 03:29:30;;;;;;;;;;;;;;;;;;2595355;22;20055;-78
2022/05/07 03:30:30;;;;;;;5.80;4.07;;;;;;;;;;2599191;22;19939;-78
2022/05/07 03:31:30;;;;;;;;;;;;;;;;;;2613085;22;20063;-79
2022/05/07 03:32:31;;;;;;;9.10;3.15;;;;;;;;;;2612226;22;19911;-78
2022/05/07 03:33:32;;;;;;;5.10;3.72;;;;;;;;;;2612175;22;20002;-79
2022/05/07 03:34:32;;;;;;;5.03;3.25;;;;;;;;;;2594562;22;19992;-79
2022/05/07 03:35:32;;;;;;;3.75;3.20;;;;;;;;;;2599003;22;20125;-79
2022/05/07 03:36:33;;;;;;;6.65;3.83;;;;;;;;;;2612881;22;19999;-78
2022/05/07 03:37:38;;;;;;;4.72;3.55;;;;;;;;;;2612415;22;20438;-79
2022/05/07 03:38:47;;;;;;;4.72;2.78;;;;;;;;;;2612725;22;19995;-79
2022/05/07 03:39:49;;;;;;;6.25;3.33;;;;;;;;;;2599112;22;19988;-79
2022/05/07 03:40:50;;;;;;;5.28;3.30;;;;;;;;;;2599200;22;20406;-78
2022/05/07 03:41:50;;;;;;;;;;;;;;;;;;2612915;22;19988;-78
2022/05/07 03:42:51;;;;;;;5.10;3.77;;;;;;;;;;2594593;22;19963;-77
2022/05/07 03:43:51;;;;;;;5.45;3.13;;;;;;;;;;2599231;22;19994;-78
2022/05/07 03:44:52;;;;;;;;;;;;;;;;;;2613200;22;19991;-79
2022/05/07 03:45:58;;;;;;;3.60;3.20;;;;;;;;;;2607678;22;19917;-79
2022/05/07 03:46:58;;;;;;;5.63;3.92;;;;;;;;;;2609743;22;19991;-80
2022/05/07 03:47:59;;;;;;;;;;;;;;;;;;2599578;22;20410;-79
2022/05/07 03:49:02;;;;;;;4.53;3.70;;;;;;;;;;2612535;22;19907;-79
2022/05/07 03:50:12;;;;;;;;;;;;;;;;;;;;;
2022/05/07 03:51:13;;;;;;;7.75;3.45;;;;;;;;;;2612200;22;20002;-78
2022/05/07 03:53:37;;;;;;;4.80;3.03;;;;;;;;;;2611915;22;19906;-78
2022/05/07 03:54:38;;;;;;;3.38;3.08;;;;;;;;;;2594701;22;20007;-79
2022/05/07 03:55:46;;;;;;;;;;;;;;;;;;2599562;22;19995;-78
2022/05/07 03:56:46;;;;;;;3.55;2.83;;;;;;;;;;2607490;22;19906;-79
2022/05/07 03:57:46;;;;;;;;;;;;;;;;;;2612249;22;19987;-77
2022/05/07 03:58:49;;;;;;;8.30;3.57;;;;;;;;;;2612569;22;19907;-77
2022/05/07 03:59:50;;;;;;;4.60;2.83;;;;;;;;;;2612410;22;20082;-79
2022/05/07 04:00:59;;;;;;;;;;;;;;;;;;2613011;22;20397;-78
2022/05/07 04:01:59;;;;;;;5.15;3.63;;;;;;;;;;2594923;22;19930;-79
2022/05/07 04:03:00;;;;;;;;;;;;;;;;;;2599613;22;19988;-79
2022/05/07 04:04:03;;;;;;;4.47;2.93;;;;;;;;;;2612418;22;20246;-79
2022/05/07 04:05:06;;;;;;;4.43;3.38;;;;;;;;;;2607587;22;19996;-79
2022/05/07 04:06:18;;;;;;;3.97;3.17;;;;;;;;;;2594912;22;19991;-79
2022/05/07 04:07:28;;;;;;;4.57;3.20;;;;;;;;;;2601035;22;19996;-80
2022/05/07 04:08:34;;;;;;;3.25;2.95;;;;;;;;;;2612295;22;19995;-79
2022/05/07 04:09:44;;;;;;;4.03;3.00;;;;;;;;;;2594634;22;19999;-79
2022/05/07 04:10:53;;;;;;;4.68;2.97;;;;;;;;;;2601059;22;19996;-79
2022/05/07 04:11:56;;;;;;;4.90;3.15;;;;;;;;;;2612290;22;20409;-78
2022/05/07 04:12:56;;;;;;;4.13;2.85;;;;;;;;;;2607593;22;20003;-79
2022/05/07 04:13:57;;;;;;;;;;;;;;;;;;2608107;22;19995;-79
2022/05/07 04:15:01;;;;;;;4.43;3.40;;;;;;;;;;2594780;22;19977;-79
2022/05/07 04:16:04;;;;;;;4.78;3.25;;;;;;;;;;2595194;22;19995;-79
2022/05/07 04:17:07;;;;;;;3.80;3.22;;;;;;;;;;2594847;22;20049;-79
2022/05/07 04:18:13;;;;;;;5.65;3.22;;;;;;;;;;2599727;22;19996;-77
2022/05/07 04:19:13;;;;;;;3.63;3.22;;;;;;;;;;2612599;22;20025;-79
2022/05/07 04:20:14;;;;;;;;;;;;;;;;;;2595310;22;20302;-78
2022/05/07 04:21:38;;;;;;;3.73;3.17;;;;;;;;;;2595202;22;20261;-78
2022/05/07 04:22:43;;;;;;;4.57;3.33;;;;;;;;;;2612469;22;19991;-79
2022/05/07 04:23:46;;;;;;;5.95;3.65;;;;;;;;;;2612512;22;20060;-80
2022/05/07 04:24:51;;;;;;;5.80;3.92;;;;;;;;;;2594746;22;20071;-79
2022/05/07 04:26:04;;;;;;;4.95;3.00;;;;;;;;;;2594829;22;19999;-79
2022/05/07 04:27:08;;;;;;;6.85;3.33;;;;;;;;;;2601842;22;20007;-79
2022/05/07 04:28:18;;;;;;;5.22;3.55;;;;;;;;;;2612311;22;20402;-79
2022/05/07 04:29:21;;;;;;;2.85;2.53;;;;;;;;;;2599088;22;19991;-79
2022/05/07 04:30:22;;;;;;;6.40;3.45;;;;;;;;;;2594589;22;20260;-79
2022/05/07 04:31:23;;;;;;;4.22;2.92;;;;;;;;;;2599269;22;19992;-79
2022/05/07 04:32:27;;;;;;;3.80;3.28;;;;;;;;;;2606142;22;20049;-79
2022/05/07 04:33:33;;;;;;;4.43;3.53;;;;;;;;;;2594771;22;20056;-79
2022/05/07 04:34:34;;;;;;;6.07;2.88;;;;;;;;;;2594653;22;20003;-79
2022/05/07 04:35:37;;;;;;;6.72;3.22;;;;;;;;;;2581999;23;20422;-80
2022/05/07 04:36:48;;;;;;;;;;;;;;;;;;;;;
2022/05/07 04:37:58;;;;;;;3.88;3.08;;;;;;;;;;2601216;22;20002;-79
2022/05/07 04:39:09;;;;;;;4.88;3.30;;;;;;;;;;2598805;22;20432;-79
2022/05/07 04:40:10;;;;;;;5.60;3.17;;;;;;;;;;2599145;22;20326;-79
2022/05/07 04:41:22;;;;;;;5.45;3.03;;;;;;;;;;2599111;22;19995;-79
2022/05/07 04:42:23;;;;;;;5.78;3.03;;;;;;;;;;2612558;22;20128;-80
2022/05/07 04:43:25;;;;;;;6.30;3.10;;;;;;;;;;2612239;22;20401;-80
2022/05/07 04:44:33;;;;;;;4.38;2.92;;;;;;;;;;2612259;22;20003;-80
2022/05/07 04:45:36;;;;;;;4.57;3.05;;;;;;;;;;2612397;22;20009;-79
2022/05/07 04:46:37;;;;;;;4.88;3.25;;;;;;;;;;2612305;22;19997;-79
2022/05/07 04:47:42;;;;;;;4.32;2.63;;;;;;;;;;2612322;22;20408;-80
2022/05/07 04:48:42;;;;;;;5.25;3.00;;;;;;;;;;2612477;22;20492;-79
2022/05/07 04:49:43;;;;;;;4.47;2.90;;;;;;;;;;2594638;22;20004;-79
2022/05/07 04:50:43;;;;;;;6.93;3.20;;;;;;;;;;2599080;22;20375;-79
2022/05/07 04:51:53;;;;;;;;;;;;;;;;;;;;;
2022/05/07 04:52:58;;;;;;;5.22;3.50;;;;;;;;;;2611414;22;19992;-80
2022/05/07 04:53:59;;;;;;;4.78;3.03;;;;;;;;;;2594782;22;20000;-80
2022/05/07 04:55:05;;;;;;;4.65;3.42;;;;;;;;;;2598979;22;19991;-80
2022/05/07 04:56:24;;;;;;;5.75;3.22;;;;;;;;;;2612355;22;20005;-80
2022/05/07 04:57:27;;;;;;;6.50;3.47;;;;;;;;;;2594635;22;20004;-80
2022/05/07 04:58:30;;;;;;;4.22;3.42;;;;;;;;;;2594937;22;20343;-80
2022/05/07 04:59:47;;;;;;;6.32;3.85;;;;;;;;;;2599707;22;19995;-79
2022/05/07 05:00:52;;;;;;;6.18;3.78;;;;;;;;;;2612760;22;20053;-79
2022/05/07 05:01:55;;;;;;;7.70;3.80;;;;;;;;;;2612226;22;19987;-78
2022/05/07 05:02:58;;;;;;;6.18;3.85;;;;;;;;;;2612447;22;19987;-79
2022/05/07 05:03:58;;;;;;;5.18;3.95;;;;;;;;;;2611934;22;19991;-79
2022/05/07 05:06:24;;;;;;;5.22;3.88;;;;;;;;;;2607924;22;19999;-79
2022/05/07 05:07:28;;;;;;;8.65;3.90;;;;;;;;;;2607875;22;19995;-79
2022/05/07 05:08:30;;;;;;;5.32;3.78;;;;;;;;;;2607486;22;19995;-79
2022/05/07 05:09:33;;;;;;;5.55;3.75;;;;;;;;;;2611764;22;20045;-79
2022/05/07 05:10:34;;;;;;;5.72;4.10;;;;;;;;;;2612195;22;20006;-79
2022/05/07 05:11:35;;;;;;;6.65;3.50;;;;;;;;;;2612070;22;20074;-79
2022/05/07 05:12:38;;;;;;;6.15;4.15;;;;;;;;;;2611746;22;19991;-79
2022/05/07 05:13:41;;;;;;;7.75;4.35;;;;;;;;;;2611956;22;19995;-79
2022/05/07 05:15:46;;;;;;;5.95;3.88;;;;;;;;;;2611924;22;20005;-79
2022/05/07 05:17:12;;;;;;;7.13;4.32;;;;;;;;;;2550493;23;20001;-79
2022/05/07 05:18:24;;;;;;;5.00;3.88;;;;;;;;;;2586614;22;19999;-79
2022/05/07 05:19:34;;;;;;;8.35;4.60;;;;;;;;;;2610992;22;19995;-79
2022/05/07 05:20:43;;;;;;;6.00;3.78;;;;;;;;;;2611104;22;19995;-79
2022/05/07 05:22:02;;;;;;;5.70;3.80;;;;;;;;;;2611140;22;20087;-79
2022/05/07 05:23:32;;;;;;;7.63;4.00;;;;;;;;;;2611185;22;20694;-79
2022/05/07 05:25:14;;;;;;;7.20;4.28;;;;;;;;;;2606450;22;20246;-79
2022/05/07 05:26:54;;;;;;;6.47;4.10;;;;;;;;;;2595336;22;19996;-79
2022/05/07 05:28:54;;;;;;;;;;;;;;;;;;;;;
2022/05/07 05:34:29;;;;;;;;;;;;;;;;;;;;;
2022/05/07 05:37:43;;;;;;;8.65;4.70;;;;;;;;;;2588459;22;20448;-79
2022/05/07 05:39:29;;;;;;;;;;;;;;;;;;;;;
2022/05/07 05:41:21;;;;;;;7.00;4.55;;;;;;;;;;2584397;23;20007;-80
2022/05/07 05:43:29;;;;;;;6.00;4.13;;;;;;;;;;2606188;22;20045;-80
2022/05/07 05:48:33;;;;;;;7.93;4.40;;;;;;;;;;2567288;23;20290;-80
2022/05/07 05:50:24;;;;;;;6.60;4.00;;;;;;;;;;2593750;22;20083;-81
2022/05/07 05:51:13;;;;;;;6.63;3.53;;;;;;;;;;2575893;22;20014;-81
2022/05/07 05:52:54;;;;;;;;;;;;;;;;;;;;;
2022/05/07 05:54:33;;;;;;;4.23;3.30;;;;;;;;;;2606950;22;20386;-78
2022/05/07 05:55:42;;;;;;;4.60;3.25;;;;;;;;;;2589752;22;20262;-82
2022/05/07 05:57:48;;;;;;;5.53;3.58;;;;;;;;;;2599693;22;20015;-81
2022/05/07 05:59:45;;;;;;;6.30;3.95;;;;;;;;;;2605726;22;20006;-81
2022/05/07 06:02:49;;;;;;;5.50;3.88;;;;;;;;;;2598163;22;20441;-80
2022/05/07 06:03:53;;;;;;;8.00;4.20;;;;;;;;;;2598313;22;19995;-80
2022/05/07 06:04:53;;;;;;;5.20;3.40;;;;;;;;;;2599081;22;20075;-81
2022/05/07 06:05:56;;;;;;;5.90;3.72;;;;;;;;;;2607109;22;20418;-80
2022/05/07 06:06:56;;;;;;;8.60;4.53;;;;;;;;;;2607535;22;20002;-79
2022/05/07 06:08:02;;;;;;;8.93;4.18;;;;;;;;;;2612581;22;19987;-80
2022/05/07 06:09:10;;;;;;;5.35;4.07;;;;;;;;;;2612217;22;20001;-81
2022/05/07 06:10:10;;;;;;;7.38;4.10;;;;;;;;;;2612200;22;19991;-79
2022/05/07 06:11:31;;;;;;;7.90;5.60;;;;;;;;;;2608072;22;20491;-79
2022/05/07 06:12:34;;;;;;;4.60;3.40;;;;;;;;;;2612113;22;19995;-80
2022/05/07 06:13:37;;;;;;;5.82;4.05;;;;;;;;;;2612034;22;20022;-79
2022/05/07 06:14:49;;;;;;;5.88;4.32;;;;;;;;;;2612736;22;20006;-83
2022/05/07 06:15:55;;;;;;;6.60;4.05;;;;;;;;;;2612251;22;19987;-81
2022/05/07 06:16:56;;;;;;;5.70;4.43;;;;;;;;;;2613283;22;19988;-81
2022/05/07 06:17:56;;;;;;;7.18;5.00;;;;;;;;;;2612976;22;19999;-79
2022/05/07 06:18:57;;;;;;;7.15;4.53;;;;;;;;;;2612171;22;20382;-80
2022/05/07 06:19:57;;;;;;;9.45;4.47;;;;;;;;;;2612550;22;19995;-82
2022/05/07 06:21:01;;;;;;;5.72;4.32;;;;;;;;;;2613564;22;19995;-81
2022/05/07 06:22:09;;;;;;;7.18;4.95;;;;;;;;;;2594967;22;20027;-81
2022/05/07 06:23:18;;;;;;;5.78;4.95;;;;;;;;;;2600553;22;20023;-80
2022/05/07 06:28:25;;;;;;;9.02;6.13;;;;;;;;;;2612790;22;20355;-79
2022/05/07 06:29:28;;;;;;;8.85;6.50;;;;;;;;;;2611727;22;20002;-82
2022/05/07 06:30:35;;;;;;;8.13;5.85;;;;;;;;;;2611988;22;19995;-82
2022/05/07 06:31:37;;;;;;;10.38;6.70;;;;;;;;;;2612348;22;20068;-80
2022/05/07 06:34:01;;;;;;;7.65;5.78;;;;;;;;;;2595466;22;20021;-79
2022/05/07 06:35:09;;;;;;;8.95;6.00;;;;;;;;;;2599662;22;20023;-81
2022/05/07 06:36:11;;;;;;;13.82;6.80;;;;;;;;;;2595065;22;20006;-79
2022/05/07 06:37:12;;;;;;;7.90;5.53;;;;;;;;;;2582460;22;19996;-80
2022/05/07 06:38:16;;;;;;;8.23;5.13;;;;;;;;;;2582084;23;19992;-78
2022/05/07 06:39:17;;;;;;;7.93;5.35;;;;;;;;;;2583102;22;19996;-80
2022/05/07 06:40:22;;;;;;;7.95;4.90;;;;;;;;;;2598977;22;20444;-80
2022/05/07 06:41:25;;;;;;;8.48;5.50;;;;;;;;;;2599287;22;20066;-80
2022/05/07 06:42:26;;;;;;;11.73;6.75;;;;;;;;;;2583072;22;20000;-80
2022/05/07 06:43:30;;;;;;;7.22;5.40;;;;;;;;;;2586551;22;20007;-80
2022/05/07 06:44:35;;;;;;;6.85;4.93;;;;;;;;;;2599328;22;19996;-81
2022/05/07 06:45:35;;;;;;;8.25;5.10;;;;;;;;;;2599252;22;19992;-80
2022/05/07 06:46:38;;;;;;;6.40;4.55;;;;;;;;;;2599842;22;19991;-80
2022/05/07 06:48:08;;;;;;;6.15;5.00;;;;;;;;;;2599623;22;20074;-80
2022/05/07 06:49:11;;;;;;;8.57;4.60;;;;;;;;;;2594886;22;19995;-82
2022/05/07 06:50:21;;;;;;;10.38;7.57;;;;;;;;;;2599086;22;19995;-81
2022/05/07 06:51:23;;;;;;;11.63;5.80;;;;;;;;;;2599711;22;19995;-81
2022/05/07 06:52:41;;;;;;;9.45;5.68;;;;;;;;;;2599875;22;19999;-78
2022/05/07 06:53:51;;;;;;;;;;;;;;;;;;;;;
2022/05/07 06:54:55;;;;;;;8.00;5.75;;;;;;;;;;2598986;22;20087;-81
2022/05/07 06:55:56;;;;;;;8.27;5.43;;;;;;;;;;2599759;22;20327;-79
2022/05/07 06:56:56;;;;;;;8.05;5.50;;;;;;;;;;2595637;22;20134;-82
2022/05/07 06:58:00;;;;;;;8.57;5.38;;;;;;;;;;2594602;22;20071;-83
2022/05/07 06:59:03;;;;;;;8.45;5.40;;;;;;;;;;2582654;22;19999;-81
2022/05/07 07:00:07;;;;;;;5.75;4.60;;;;;;;;;;2599086;22;20057;-82
2022/05/07 07:01:10;;;;;;;6.53;4.85;;;;;;;;;;2599439;22;20011;-80
2022/05/07 07:02:12;;;;;;;5.93;4.38;;;;;;;;;;2599608;22;20441;-81
2022/05/07 07:03:12;;;;;;;5.90;4.65;;;;;;;;;;2594661;22;20101;-81
2022/05/07 07:04:18;;;;;;;7.43;4.70;;;;;;;;;;2594775;22;20383;-83
2022/05/07 07:05:29;;;;;;;7.07;4.03;;;;;;;;;;2599263;22;20111;-81
2022/05/07 07:06:41;;;;;;;5.88;4.28;;;;;;;;;;2599798;22;20055;-82
2022/05/07 07:07:41;;;;;;;6.55;4.47;;;;;;;;;;2599635;22;20057;-81
2022/05/07 07:08:44;;;;;;;6.70;4.13;;;;;;;;;;2599556;22;19999;-80
2022/05/07 07:09:44;;;;;;;7.25;4.38;;;;;;;;;;2599856;22;19992;-83
2022/05/07 07:10:45;;;;;;;6.43;4.13;;;;;;;;;;2599415;22;20026;-80